To NAV CANADA Home Page Login to a new session Search on AWWS site Feedback and Comments Disclaimer Vers la page française équivalente Tips FAQ What's new on the site To the Forecasts and Observations / NOTAM section To "File a Flight Plan" website Publications and other links Update of the User's profile FIC Telephone Numbers My Weather Data Folder Route Weather Data Regional Weather Data Local Weather Data To the Forecasts and Observations / NOTAM section
Request Generated 02/23/2017 at 20:46:41 UTC . Weather information available at that time is displayed.

METAR/TAF

LONDON/ON    

METAR CYXU 232000Z 33011G17KT 15SM FEW028 FEW280 13/08 A2973 RMK
SC1CI1 SC TR SLP071 DENSITY ALT 1000FT=
METAR CYXU 231900Z 33011G19KT 15SM FEW028 SCT280 14/09 A2971 RMK
SC1CI2 SLP065 DENSITY ALT 1100FT=
METAR CYXU 231800Z 29015KT 15SM BKN035 18/07 A2969 RMK SC5 SLP056
DENSITY ALT 1700FT=

TAF CYXU 231741Z 2318/2418 27012G22KT P6SM BKN030
BECMG 2320/2322 31010KT
BECMG 2323/2401 35007KT
FM240500 06006KT 6SM -SHRA BR SCT006 OVC015 TEMPO 2405/2408 3SM
-SHRA BR BKN006 OVC015 PROB30 2406/2408 2SM TSRA BR BKN006
OVC025CB
FM240800 09010KT 11/2SM -SHRA BR OVC005 PROB30 2408/2410 2SM TSRA
BR OVC005CB
FM241200 10012KT 1/2SM -SHRA FG VV002 PROB30 2412/2416 1/4SM TSRA
FG VV001
FM241600 19017G27KT P6SM BKN015
RMK NXT FCST BY 240000Z=
Your time UTC time
Weather data provided by Environment Canada and NAV CANADA